sensor_id;sensor_type;location;lat;lon;timestamp;temperature;humidity
67820;DHT22;54618;52.018;5.576;2023-02-28T00:00:28;17.10;45.00
67820;DHT22;54618;52.018;5.576;2023-02-28T00:02:53;17.10;45.00
67820;DHT22;54618;52.018;5.576;2023-02-28T00:05:22;17.10;45.00
67820;DHT22;54618;52.018;5.576;2023-02-28T00:07:48;17.10;45.00
67820;DHT22;54618;52.018;5.576;2023-02-28T00:10:27;17.10;45.10
67820;DHT22;54618;52.018;5.576;2023-02-28T00:12:55;17.00;45.00
67820;DHT22;54618;52.018;5.576;2023-02-28T00:15:24;17.00;45.00
67820;DHT22;54618;52.018;5.576;2023-02-28T00:17:49;17.00;45.00
67820;DHT22;54618;52.018;5.576;2023-02-28T00:20:16;17.00;45.00
67820;DHT22;54618;52.018;5.576;2023-02-28T00:22:44;17.00;45.00
67820;DHT22;54618;52.018;5.576;2023-02-28T00:25:12;17.00;45.00
67820;DHT22;54618;52.018;5.576;2023-02-28T00:27:38;16.90;45.00
67820;DHT22;54618;52.018;5.576;2023-02-28T00:30:06;16.90;45.00
67820;DHT22;54618;52.018;5.576;2023-02-28T00:32:32;16.90;45.00
67820;DHT22;54618;52.018;5.576;2023-02-28T00:34:57;16.90;45.00
67820;DHT22;54618;52.018;5.576;2023-02-28T00:37:23;16.90;45.10
67820;DHT22;54618;52.018;5.576;2023-02-28T00:39:48;16.90;45.10
67820;DHT22;54618;52.018;5.576;2023-02-28T00:42:14;16.90;45.00
67820;DHT22;54618;52.018;5.576;2023-02-28T00:44:39;16.90;44.90
67820;DHT22;54618;52.018;5.576;2023-02-28T00:47:05;16.90;45.10
67820;DHT22;54618;52.018;5.576;2023-02-28T00:49:31;16.90;45.20
67820;DHT22;54618;52.018;5.576;2023-02-28T00:51:57;16.90;45.20
67820;DHT22;54618;52.018;5.576;2023-02-28T00:54:23;16.90;45.20
67820;DHT22;54618;52.018;5.576;2023-02-28T00:56:49;16.90;45.10
67820;DHT22;54618;52.018;5.576;2023-02-28T00:59:16;16.90;45.20
67820;DHT22;54618;52.018;5.576;2023-02-28T01:01:43;16.90;45.20
67820;DHT22;54618;52.018;5.576;2023-02-28T01:04:09;16.90;45.20
67820;DHT22;54618;52.018;5.576;2023-02-28T01:06:34;16.90;45.30
67820;DHT22;54618;52.018;5.576;2023-02-28T01:09:01;16.90;45.30
67820;DHT22;54618;52.018;5.576;2023-02-28T01:11:27;16.80;45.30
67820;DHT22;54618;52.018;5.576;2023-02-28T01:13:52;16.80;45.30
67820;DHT22;54618;52.018;5.576;2023-02-28T01:16:18;16.80;45.40
67820;DHT22;54618;52.018;5.576;2023-02-28T01:18:44;16.80;45.50
67820;DHT22;54618;52.018;5.576;2023-02-28T01:21:12;16.80;45.50
67820;DHT22;54618;52.018;5.576;2023-02-28T01:23:39;16.80;45.50
67820;DHT22;54618;52.018;5.576;2023-02-28T01:26:11;16.80;45.50
67820;DHT22;54618;52.018;5.576;2023-02-28T01:28:37;16.70;45.50
67820;DHT22;54618;52.018;5.576;2023-02-28T01:31:03;16.70;45.40
67820;DHT22;54618;52.018;5.576;2023-02-28T01:33:29;16.70;45.50
67820;DHT22;54618;52.018;5.576;2023-02-28T01:36:00;16.70;45.50
67820;DHT22;54618;52.018;5.576;2023-02-28T01:38:26;16.70;45.50
67820;DHT22;54618;52.018;5.576;2023-02-28T01:40:52;16.70;45.50
67820;DHT22;54618;52.018;5.576;2023-02-28T01:45:49;16.70;45.60
67820;DHT22;54618;52.018;5.576;2023-02-28T01:48:15;16.60;45.50
67820;DHT22;54618;52.018;5.576;2023-02-28T01:50:44;16.60;45.40
67820;DHT22;54618;52.018;5.576;2023-02-28T01:53:13;16.60;45.50
67820;DHT22;54618;52.018;5.576;2023-02-28T01:55:41;16.60;45.50
67820;DHT22;54618;52.018;5.576;2023-02-28T01:58:08;16.60;45.50
67820;DHT22;54618;52.018;5.576;2023-02-28T02:00:35;16.60;45.50
67820;DHT22;54618;52.018;5.576;2023-02-28T02:03:06;16.60;45.50
67820;DHT22;54618;52.018;5.576;2023-02-28T02:05:36;16.60;45.50
67820;DHT22;54618;52.018;5.576;2023-02-28T02:08:05;16.60;45.50
67820;DHT22;54618;52.018;5.576;2023-02-28T02:10:39;16.50;45.50
67820;DHT22;54618;52.018;5.576;2023-02-28T02:15:59;16.50;45.80
67820;DHT22;54618;52.018;5.576;2023-02-28T02:18:43;16.50;45.50
67820;DHT22;54618;52.018;5.576;2023-02-28T02:35:15;16.50;46.00
67820;DHT22;54618;52.018;5.576;2023-02-28T02:37:52;16.40;45.60
67820;DHT22;54618;52.018;5.576;2023-02-28T02:40:27;16.40;45.60
67820;DHT22;54618;52.018;5.576;2023-02-28T02:43:04;16.40;45.70
67820;DHT22;54618;52.018;5.576;2023-02-28T02:45:42;16.40;45.70
67820;DHT22;54618;52.018;5.576;2023-02-28T02:48:13;16.40;45.70
67820;DHT22;54618;52.018;5.576;2023-02-28T02:50:48;16.40;46.30
67820;DHT22;54618;52.018;5.576;2023-02-28T02:53:18;16.40;45.70
67820;DHT22;54618;52.018;5.576;2023-02-28T02:55:49;16.40;45.70
67820;DHT22;54618;52.018;5.576;2023-02-28T02:58:24;16.30;45.60
67820;DHT22;54618;52.018;5.576;2023-02-28T03:00:53;16.30;45.60
67820;DHT22;54618;52.018;5.576;2023-02-28T03:03:21;16.30;45.70
67820;DHT22;54618;52.018;5.576;2023-02-28T03:05:55;16.30;45.60
67820;DHT22;54618;52.018;5.576;2023-02-28T03:08:22;16.30;45.50
67820;DHT22;54618;52.018;5.576;2023-02-28T03:10:52;16.60;45.30
67820;DHT22;54618;52.018;5.576;2023-02-28T03:13:38;17.00;45.00
67820;DHT22;54618;52.018;5.576;2023-02-28T03:16:32;17.40;44.70
67820;DHT22;54618;52.018;5.576;2023-02-28T03:24:43;18.10;43.70
67820;DHT22;54618;52.018;5.576;2023-02-28T03:30:09;18.10;43.80
67820;DHT22;54618;52.018;5.576;2023-02-28T03:35:27;18.10;43.80
67820;DHT22;54618;52.018;5.576;2023-02-28T03:41:20;18.30;44.00
67820;DHT22;54618;52.018;5.576;2023-02-28T03:43:56;18.30;43.80
67820;DHT22;54618;52.018;5.576;2023-02-28T03:46:26;18.30;43.80
67820;DHT22;54618;52.018;5.576;2023-02-28T03:49:09;18.30;43.70
67820;DHT22;54618;52.018;5.576;2023-02-28T03:51:40;18.40;43.70
67820;DHT22;54618;52.018;5.576;2023-02-28T03:54:13;18.40;43.70
67820;DHT22;54618;52.018;5.576;2023-02-28T04:01:59;18.30;44.00
67820;DHT22;54618;52.018;5.576;2023-02-28T04:04:25;18.30;44.00
67820;DHT22;54618;52.018;5.576;2023-02-28T04:06:52;18.30;44.00
67820;DHT22;54618;52.018;5.576;2023-02-28T04:09:18;18.30;44.00
67820;DHT22;54618;52.018;5.576;2023-02-28T04:11:50;18.20;44.00
67820;DHT22;54618;52.018;5.576;2023-02-28T04:14:17;18.20;44.00
67820;DHT22;54618;52.018;5.576;2023-02-28T04:16:43;18.20;44.00
67820;DHT22;54618;52.018;5.576;2023-02-28T04:19:10;18.20;44.00
67820;DHT22;54618;52.018;5.576;2023-02-28T04:21:42;18.20;44.00
67820;DHT22;54618;52.018;5.576;2023-02-28T04:24:09;18.20;44.00
67820;DHT22;54618;52.018;5.576;2023-02-28T04:26:40;18.20;44.00
67820;DHT22;54618;52.018;5.576;2023-02-28T04:29:06;18.20;44.00
67820;DHT22;54618;52.018;5.576;2023-02-28T04:31:33;18.20;44.00
67820;DHT22;54618;52.018;5.576;2023-02-28T04:33:59;18.20;44.00
67820;DHT22;54618;52.018;5.576;2023-02-28T04:36:24;18.20;44.00
67820;DHT22;54618;52.018;5.576;2023-02-28T04:38:50;18.20;44.00
67820;DHT22;54618;52.018;5.576;2023-02-28T04:41:17;18.20;43.90
67820;DHT22;54618;52.018;5.576;2023-02-28T04:43:42;18.20;43.90
67820;DHT22;54618;52.018;5.576;2023-02-28T04:46:08;18.20;44.00
67820;DHT22;54618;52.018;5.576;2023-02-28T04:48:36;18.20;44.00
67820;DHT22;54618;52.018;5.576;2023-02-28T04:51:03;18.20;43.90
67820;DHT22;54618;52.018;5.576;2023-02-28T04:53:30;18.20;43.90
67820;DHT22;54618;52.018;5.576;2023-02-28T04:55:56;18.20;43.90
67820;DHT22;54618;52.018;5.576;2023-02-28T04:58:22;18.20;43.90
67820;DHT22;54618;52.018;5.576;2023-02-28T05:00:49;18.20;43.90
67820;DHT22;54618;52.018;5.576;2023-02-28T05:03:15;18.20;44.00
67820;DHT22;54618;52.018;5.576;2023-02-28T05:05:40;18.20;43.90
67820;DHT22;54618;52.018;5.576;2023-02-28T05:08:06;18.20;43.90
67820;DHT22;54618;52.018;5.576;2023-02-28T05:10:31;18.20;43.90
67820;DHT22;54618;52.018;5.576;2023-02-28T05:12:57;18.20;43.90
67820;DHT22;54618;52.018;5.576;2023-02-28T05:15:23;18.20;43.90
67820;DHT22;54618;52.018;5.576;2023-02-28T05:17:48;18.20;44.50
67820;DHT22;54618;52.018;5.576;2023-02-28T05:20:14;18.20;43.80
67820;DHT22;54618;52.018;5.576;2023-02-28T05:22:40;18.20;43.80
67820;DHT22;54618;52.018;5.576;2023-02-28T05:25:08;18.20;43.80
67820;DHT22;54618;52.018;5.576;2023-02-28T05:27:35;18.20;43.70
67820;DHT22;54618;52.018;5.576;2023-02-28T05:30:01;18.30;43.80
67820;DHT22;54618;52.018;5.576;2023-02-28T05:32:28;18.20;43.70
67820;DHT22;54618;52.018;5.576;2023-02-28T05:34:54;18.20;43.70
67820;DHT22;54618;52.018;5.576;2023-02-28T05:37:19;18.20;43.70
67820;DHT22;54618;52.018;5.576;2023-02-28T05:39:45;18.20;43.70
67820;DHT22;54618;52.018;5.576;2023-02-28T05:42:10;18.20;43.70
67820;DHT22;54618;52.018;5.576;2023-02-28T05:44:36;18.20;43.70
67820;DHT22;54618;52.018;5.576;2023-02-28T05:47:02;18.20;43.70
67820;DHT22;54618;52.018;5.576;2023-02-28T05:49:27;18.20;43.80
67820;DHT22;54618;52.018;5.576;2023-02-28T05:51:53;18.20;43.70
67820;DHT22;54618;52.018;5.576;2023-02-28T05:54:18;18.20;43.70
67820;DHT22;54618;52.018;5.576;2023-02-28T05:56:44;18.20;43.70
67820;DHT22;54618;52.018;5.576;2023-02-28T05:59:11;18.20;43.70
67820;DHT22;54618;52.018;5.576;2023-02-28T06:01:42;18.20;43.70
67820;DHT22;54618;52.018;5.576;2023-02-28T06:04:14;18.20;43.70
67820;DHT22;54618;52.018;5.576;2023-02-28T06:06:43;18.20;43.70
67820;DHT22;54618;52.018;5.576;2023-02-28T06:09:10;18.20;43.70
67820;DHT22;54618;52.018;5.576;2023-02-28T06:11:35;18.20;43.70
67820;DHT22;54618;52.018;5.576;2023-02-28T06:14:02;18.20;43.70
67820;DHT22;54618;52.018;5.576;2023-02-28T06:16:29;18.20;43.70
67820;DHT22;54618;52.018;5.576;2023-02-28T06:18:57;18.20;43.70
67820;DHT22;54618;52.018;5.576;2023-02-28T06:21:23;18.10;43.70
67820;DHT22;54618;52.018;5.576;2023-02-28T06:23:49;17.90;43.70
67820;DHT22;54618;52.018;5.576;2023-02-28T06:26:14;17.70;43.70
67820;DHT22;54618;52.018;5.576;2023-02-28T06:28:40;17.60;43.90
67820;DHT22;54618;52.018;5.576;2023-02-28T06:31:11;17.50;44.10
67820;DHT22;54618;52.018;5.576;2023-02-28T06:33:38;17.30;44.10
67820;DHT22;54618;52.018;5.576;2023-02-28T06:36:05;17.30;44.30
67820;DHT22;54618;52.018;5.576;2023-02-28T06:38:32;17.40;44.40
67820;DHT22;54618;52.018;5.576;2023-02-28T06:40:59;17.80;44.10
67820;DHT22;54618;52.018;5.576;2023-02-28T06:43:27;18.30;43.60
67820;DHT22;54618;52.018;5.576;2023-02-28T06:45:58;18.70;43.10
67820;DHT22;54618;52.018;5.576;2023-02-28T06:48:24;19.10;42.60
67820;DHT22;54618;52.018;5.576;2023-02-28T06:50:49;19.50;42.20
67820;DHT22;54618;52.018;5.576;2023-02-28T06:53:15;19.80;42.00
67820;DHT22;54618;52.018;5.576;2023-02-28T06:55:41;20.00;41.70
67820;DHT22;54618;52.018;5.576;2023-02-28T06:58:07;20.20;41.70
67820;DHT22;54618;52.018;5.576;2023-02-28T07:00:45;20.40;41.60
67820;DHT22;54618;52.018;5.576;2023-02-28T07:03:12;20.60;41.50
67820;DHT22;54618;52.018;5.576;2023-02-28T07:05:38;20.70;41.40
67820;DHT22;54618;52.018;5.576;2023-02-28T07:08:04;20.80;41.40
67820;DHT22;54618;52.018;5.576;2023-02-28T07:10:34;21.00;41.40
67820;DHT22;54618;52.018;5.576;2023-02-28T07:13:01;21.00;41.30
67820;DHT22;54618;52.018;5.576;2023-02-28T07:15:27;21.10;41.30
67820;DHT22;54618;52.018;5.576;2023-02-28T07:17:52;21.20;41.30
67820;DHT22;54618;52.018;5.576;2023-02-28T07:20:18;21.30;41.30
67820;DHT22;54618;52.018;5.576;2023-02-28T07:22:43;21.30;41.40
67820;DHT22;54618;52.018;5.576;2023-02-28T07:25:09;21.30;41.30
67820;DHT22;54618;52.018;5.576;2023-02-28T07:27:35;21.40;41.40
67820;DHT22;54618;52.018;5.576;2023-02-28T07:30:01;21.40;41.40
67820;DHT22;54618;52.018;5.576;2023-02-28T07:32:28;21.50;41.40
67820;DHT22;54618;52.018;5.576;2023-02-28T07:34:54;21.50;41.40
67820;DHT22;54618;52.018;5.576;2023-02-28T07:37:20;21.50;41.30
67820;DHT22;54618;52.018;5.576;2023-02-28T07:39:46;21.60;41.40
67820;DHT22;54618;52.018;5.576;2023-02-28T07:42:11;21.50;41.30
67820;DHT22;54618;52.018;5.576;2023-02-28T07:44:41;21.60;41.40
67820;DHT22;54618;52.018;5.576;2023-02-28T07:47:11;21.60;41.40
67820;DHT22;54618;52.018;5.576;2023-02-28T07:49:37;21.60;41.40
67820;DHT22;54618;52.018;5.576;2023-02-28T07:52:04;21.60;41.30
67820;DHT22;54618;52.018;5.576;2023-02-28T07:54:30;21.70;41.40
67820;DHT22;54618;52.018;5.576;2023-02-28T07:56:56;21.60;41.30
67820;DHT22;54618;52.018;5.576;2023-02-28T07:59:22;21.70;41.30
67820;DHT22;54618;52.018;5.576;2023-02-28T08:01:48;21.70;41.30
67820;DHT22;54618;52.018;5.576;2023-02-28T08:04:18;21.70;42.00
67820;DHT22;54618;52.018;5.576;2023-02-28T08:06:43;21.70;41.40
67820;DHT22;54618;52.018;5.576;2023-02-28T08:09:09;21.70;41.40
67820;DHT22;54618;52.018;5.576;2023-02-28T08:11:35;21.70;41.40
67820;DHT22;54618;52.018;5.576;2023-02-28T08:14:01;21.70;41.40
67820;DHT22;54618;52.018;5.576;2023-02-28T08:16:27;21.70;41.40
67820;DHT22;54618;52.018;5.576;2023-02-28T08:18:53;21.70;41.40
67820;DHT22;54618;52.018;5.576;2023-02-28T08:21:19;21.70;41.40
67820;DHT22;54618;52.018;5.576;2023-02-28T08:23:47;21.70;41.30
67820;DHT22;54618;52.018;5.576;2023-02-28T08:26:14;21.80;41.30
67820;DHT22;54618;52.018;5.576;2023-02-28T08:28:39;21.80;41.40
67820;DHT22;54618;52.018;5.576;2023-02-28T08:31:10;21.90;41.30
67820;DHT22;54618;52.018;5.576;2023-02-28T08:33:36;21.90;41.20
67820;DHT22;54618;52.018;5.576;2023-02-28T08:36:02;22.00;41.20
67820;DHT22;54618;52.018;5.576;2023-02-28T08:38:27;22.10;41.30
67820;DHT22;54618;52.018;5.576;2023-02-28T08:41:01;22.10;41.10
67820;DHT22;54618;52.018;5.576;2023-02-28T08:43:27;22.20;41.10
67820;DHT22;54618;52.018;5.576;2023-02-28T08:45:54;22.20;41.10
67820;DHT22;54618;52.018;5.576;2023-02-28T08:48:22;22.20;41.10
67820;DHT22;54618;52.018;5.576;2023-02-28T08:50:56;22.10;41.20
67820;DHT22;54618;52.018;5.576;2023-02-28T08:53:21;22.00;41.30
67820;DHT22;54618;52.018;5.576;2023-02-28T08:55:47;21.90;41.50
67820;DHT22;54618;52.018;5.576;2023-02-28T08:58:12;21.80;41.70
67820;DHT22;54618;52.018;5.576;2023-02-28T09:00:38;21.70;41.80
67820;DHT22;54618;52.018;5.576;2023-02-28T09:03:03;21.60;41.80
67820;DHT22;54618;52.018;5.576;2023-02-28T09:05:29;21.60;41.90
67820;DHT22;54618;52.018;5.576;2023-02-28T09:07:55;21.60;41.90
67820;DHT22;54618;52.018;5.576;2023-02-28T09:10:20;21.50;41.90
67820;DHT22;54618;52.018;5.576;2023-02-28T09:12:46;21.50;41.90
67820;DHT22;54618;52.018;5.576;2023-02-28T09:15:12;21.50;41.90
67820;DHT22;54618;52.018;5.576;2023-02-28T09:17:38;21.50;41.90
67820;DHT22;54618;52.018;5.576;2023-02-28T09:20:04;21.50;41.80
67820;DHT22;54618;52.018;5.576;2023-02-28T09:22:30;21.50;41.70
67820;DHT22;54618;52.018;5.576;2023-02-28T09:24:57;21.50;41.70
67820;DHT22;54618;52.018;5.576;2023-02-28T09:27:23;21.50;41.60
67820;DHT22;54618;52.018;5.576;2023-02-28T09:29:48;21.60;41.60
67820;DHT22;54618;52.018;5.576;2023-02-28T09:32:14;21.50;41.40
67820;DHT22;54618;52.018;5.576;2023-02-28T09:34:40;21.40;41.40
67820;DHT22;54618;52.018;5.576;2023-02-28T09:37:05;21.30;41.10
67820;DHT22;54618;52.018;5.576;2023-02-28T09:39:34;21.20;41.10
67820;DHT22;54618;52.018;5.576;2023-02-28T09:42:02;21.10;41.10
67820;DHT22;54618;52.018;5.576;2023-02-28T09:44:33;21.00;41.20
67820;DHT22;54618;52.018;5.576;2023-02-28T09:47:27;21.00;41.30
67820;DHT22;54618;52.018;5.576;2023-02-28T09:49:51;20.90;41.20
67820;DHT22;54618;52.018;5.576;2023-02-28T09:52:20;20.70;41.30
67820;DHT22;54618;52.018;5.576;2023-02-28T09:54:46;20.60;41.40
67820;DHT22;54618;52.018;5.576;2023-02-28T10:02:17;20.50;41.40
67820;DHT22;54618;52.018;5.576;2023-02-28T10:04:54;20.40;41.30
67820;DHT22;54618;52.018;5.576;2023-02-28T10:10:24;20.40;41.10
67820;DHT22;54618;52.018;5.576;2023-02-28T10:12:55;20.40;41.30
67820;DHT22;54618;52.018;5.576;2023-02-28T10:15:24;20.40;41.20
67820;DHT22;54618;52.018;5.576;2023-02-28T10:17:54;20.40;41.20
67820;DHT22;54618;52.018;5.576;2023-02-28T10:20:23;20.30;41.10
67820;DHT22;54618;52.018;5.576;2023-02-28T10:26:26;20.30;41.00
67820;DHT22;54618;52.018;5.576;2023-02-28T10:28:53;20.30;40.90
67820;DHT22;54618;52.018;5.576;2023-02-28T10:31:19;20.30;41.20
67820;DHT22;54618;52.018;5.576;2023-02-28T10:33:45;20.30;41.10
67820;DHT22;54618;52.018;5.576;2023-02-28T10:36:16;20.30;41.10
67820;DHT22;54618;52.018;5.576;2023-02-28T10:38:43;20.30;41.10
67820;DHT22;54618;52.018;5.576;2023-02-28T10:41:27;20.30;41.10
67820;DHT22;54618;52.018;5.576;2023-02-28T10:44:17;20.20;40.80
67820;DHT22;54618;52.018;5.576;2023-02-28T10:46:45;20.30;40.70
67820;DHT22;54618;52.018;5.576;2023-02-28T10:49:21;20.20;40.90
67820;DHT22;54618;52.018;5.576;2023-02-28T10:51:52;20.20;40.80
67820;DHT22;54618;52.018;5.576;2023-02-28T10:54:22;20.20;40.90
67820;DHT22;54618;52.018;5.576;2023-02-28T10:59:33;20.20;40.50
67820;DHT22;54618;52.018;5.576;2023-02-28T11:01:59;20.20;40.80
67820;DHT22;54618;52.018;5.576;2023-02-28T11:07:02;20.20;40.70
67820;DHT22;54618;52.018;5.576;2023-02-28T11:09:28;20.20;40.70
67820;DHT22;54618;52.018;5.576;2023-02-28T11:11:56;20.20;40.80
67820;DHT22;54618;52.018;5.576;2023-02-28T11:14:25;20.10;40.80
67820;DHT22;54618;52.018;5.576;2023-02-28T11:16:52;20.10;40.70
67820;DHT22;54618;52.018;5.576;2023-02-28T11:19:30;20.10;40.70
67820;DHT22;54618;52.018;5.576;2023-02-28T11:22:01;20.10;40.50
67820;DHT22;54618;52.018;5.576;2023-02-28T11:25:06;20.10;40.70
67820;DHT22;54618;52.018;5.576;2023-02-28T11:29:58;20.10;40.70
67820;DHT22;54618;52.018;5.576;2023-02-28T11:32:26;20.00;40.70
67820;DHT22;54618;52.018;5.576;2023-02-28T11:35:15;20.00;40.70
67820;DHT22;54618;52.018;5.576;2023-02-28T11:37:42;20.00;40.50
67820;DHT22;54618;52.018;5.576;2023-02-28T11:40:35;20.00;40.80
67820;DHT22;54618;52.018;5.576;2023-02-28T11:43:16;20.00;40.70
67820;DHT22;54618;52.018;5.576;2023-02-28T11:46:05;20.00;40.80
67820;DHT22;54618;52.018;5.576;2023-02-28T11:51:56;20.00;40.60
67820;DHT22;54618;52.018;5.576;2023-02-28T11:54:52;19.90;40.70
67820;DHT22;54618;52.018;5.576;2023-02-28T11:58:10;19.90;40.70
67820;DHT22;54618;52.018;5.576;2023-02-28T12:05:46;19.90;40.70
67820;DHT22;54618;52.018;5.576;2023-02-28T12:08:42;19.90;40.80
67820;DHT22;54618;52.018;5.576;2023-02-28T12:11:25;19.90;40.70
67820;DHT22;54618;52.018;5.576;2023-02-28T12:14:16;19.80;40.70
67820;DHT22;54618;52.018;5.576;2023-02-28T12:27:41;19.80;40.90
67820;DHT22;54618;52.018;5.576;2023-02-28T12:30:33;19.70;40.80
67820;DHT22;54618;52.018;5.576;2023-02-28T12:33:06;19.70;40.80
67820;DHT22;54618;52.018;5.576;2023-02-28T12:35:37;19.70;40.90
67820;DHT22;54618;52.018;5.576;2023-02-28T12:38:28;19.70;41.00
67820;DHT22;54618;52.018;5.576;2023-02-28T12:41:08;19.70;40.80
67820;DHT22;54618;52.018;5.576;2023-02-28T12:43:46;19.70;40.90
67820;DHT22;54618;52.018;5.576;2023-02-28T12:48:44;19.60;40.90
67820;DHT22;54618;52.018;5.576;2023-02-28T12:51:12;19.60;41.00
67820;DHT22;54618;52.018;5.576;2023-02-28T12:53:57;19.60;41.00
67820;DHT22;54618;52.018;5.576;2023-02-28T12:56:40;19.50;40.80
67820;DHT22;54618;52.018;5.576;2023-02-28T13:00:15;19.50;40.90
67820;DHT22;54618;52.018;5.576;2023-02-28T13:05:39;19.40;40.90
67820;DHT22;54618;52.018;5.576;2023-02-28T13:08:37;19.40;41.00
67820;DHT22;54618;52.018;5.576;2023-02-28T13:11:06;19.40;40.90
67820;DHT22;54618;52.018;5.576;2023-02-28T13:13:32;19.40;41.10
67820;DHT22;54618;52.018;5.576;2023-02-28T13:16:01;19.30;41.10
67820;DHT22;54618;52.018;5.576;2023-02-28T13:18:34;19.30;41.10
67820;DHT22;54618;52.018;5.576;2023-02-28T13:21:03;19.20;41.00
67820;DHT22;54618;52.018;5.576;2023-02-28T13:26:21;19.20;41.00
67820;DHT22;54618;52.018;5.576;2023-02-28T13:29:00;19.20;41.10
67820;DHT22;54618;52.018;5.576;2023-02-28T13:31:27;19.10;41.00
67820;DHT22;54618;52.018;5.576;2023-02-28T13:36:29;19.10;41.20
67820;DHT22;54618;52.018;5.576;2023-02-28T13:39:01;19.10;41.20
67820;DHT22;54618;52.018;5.576;2023-02-28T13:51:55;18.90;41.30
67820;DHT22;54618;52.018;5.576;2023-02-28T13:54:45;18.90;41.50
67820;DHT22;54618;52.018;5.576;2023-02-28T13:57:32;18.80;41.40
67820;DHT22;54618;52.018;5.576;2023-02-28T14:00:07;18.80;41.40
67820;DHT22;54618;52.018;5.576;2023-02-28T14:05:20;18.70;41.40
67820;DHT22;54618;52.018;5.576;2023-02-28T14:07:57;18.70;41.60
67820;DHT22;54618;52.018;5.576;2023-02-28T14:10:25;18.60;41.50
67820;DHT22;54618;52.018;5.576;2023-02-28T14:13:10;18.60;41.60
67820;DHT22;54618;52.018;5.576;2023-02-28T14:15:49;18.60;41.50
67820;DHT22;54618;52.018;5.576;2023-02-28T14:18:37;18.50;41.50
67820;DHT22;54618;52.018;5.576;2023-02-28T14:24:03;18.50;41.60
67820;DHT22;54618;52.018;5.576;2023-02-28T14:29:33;18.40;41.70
67820;DHT22;54618;52.018;5.576;2023-02-28T14:32:15;18.40;41.70
67820;DHT22;54618;52.018;5.576;2023-02-28T14:34:54;18.40;41.70
67820;DHT22;54618;52.018;5.576;2023-02-28T14:37:28;18.30;41.70
67820;DHT22;54618;52.018;5.576;2023-02-28T14:39:55;18.30;41.70
67820;DHT22;54618;52.018;5.576;2023-02-28T14:42:46;18.20;41.60
67820;DHT22;54618;52.018;5.576;2023-02-28T14:45:22;18.30;41.70
67820;DHT22;54618;52.018;5.576;2023-02-28T14:47:50;18.20;41.60
67820;DHT22;54618;52.018;5.576;2023-02-28T14:50:22;18.20;41.60
67820;DHT22;54618;52.018;5.576;2023-02-28T14:52:52;18.20;41.70
67820;DHT22;54618;52.018;5.576;2023-02-28T14:55:19;18.20;41.70
67820;DHT22;54618;52.018;5.576;2023-02-28T14:58:02;18.10;41.70
67820;DHT22;54618;52.018;5.576;2023-02-28T15:00:32;18.10;41.70
67820;DHT22;54618;52.018;5.576;2023-02-28T15:02:59;18.10;41.80
67820;DHT22;54618;52.018;5.576;2023-02-28T15:05:33;18.10;41.70
67820;DHT22;54618;52.018;5.576;2023-02-28T15:10:37;18.00;41.70
67820;DHT22;54618;52.018;5.576;2023-02-28T15:13:06;18.00;41.70
67820;DHT22;54618;52.018;5.576;2023-02-28T15:21:07;17.90;41.70
67820;DHT22;54618;52.018;5.576;2023-02-28T15:23:36;17.90;41.70
67820;DHT22;54618;52.018;5.576;2023-02-28T15:26:03;17.90;41.70
67820;DHT22;54618;52.018;5.576;2023-02-28T15:28:30;17.80;42.30
67820;DHT22;54618;52.018;5.576;2023-02-28T15:30:59;17.80;41.60
67820;DHT22;54618;52.018;5.576;2023-02-28T15:33:28;17.80;41.70
67820;DHT22;54618;52.018;5.576;2023-02-28T15:36:15;17.80;41.70
67820;DHT22;54618;52.018;5.576;2023-02-28T15:38:43;17.80;41.70
67820;DHT22;54618;52.018;5.576;2023-02-28T15:41:24;17.70;41.70
67820;DHT22;54618;52.018;5.576;2023-02-28T15:44:13;17.70;41.70
67820;DHT22;54618;52.018;5.576;2023-02-28T15:46:44;17.70;41.70
67820;DHT22;54618;52.018;5.576;2023-02-28T15:49:19;17.70;41.70
67820;DHT22;54618;52.018;5.576;2023-02-28T15:51:46;17.70;41.70
67820;DHT22;54618;52.018;5.576;2023-02-28T15:54:19;17.60;41.70
67820;DHT22;54618;52.018;5.576;2023-02-28T15:56:49;17.60;41.70
67820;DHT22;54618;52.018;5.576;2023-02-28T15:59:24;17.60;41.70
67820;DHT22;54618;52.018;5.576;2023-02-28T16:04:37;17.60;41.70
67820;DHT22;54618;52.018;5.576;2023-02-28T16:07:19;17.50;41.70
67820;DHT22;54618;52.018;5.576;2023-02-28T16:09:44;17.60;41.70
67820;DHT22;54618;52.018;5.576;2023-02-28T16:12:10;17.50;41.60
67820;DHT22;54618;52.018;5.576;2023-02-28T16:14:38;17.50;41.60
67820;DHT22;54618;52.018;5.576;2023-02-28T16:17:14;17.50;41.70
67820;DHT22;54618;52.018;5.576;2023-02-28T16:19:41;17.50;41.70
67820;DHT22;54618;52.018;5.576;2023-02-28T16:22:09;17.50;41.70
67820;DHT22;54618;52.018;5.576;2023-02-28T16:24:34;17.50;41.70
67820;DHT22;54618;52.018;5.576;2023-02-28T16:27:00;17.50;41.70
67820;DHT22;54618;52.018;5.576;2023-02-28T16:29:32;17.40;41.60
67820;DHT22;54618;52.018;5.576;2023-02-28T16:31:58;17.40;41.60
67820;DHT22;54618;52.018;5.576;2023-02-28T16:34:25;17.40;41.60
67820;DHT22;54618;52.018;5.576;2023-02-28T16:36:50;17.40;41.70
67820;DHT22;54618;52.018;5.576;2023-02-28T16:39:16;17.30;41.60
67820;DHT22;54618;52.018;5.576;2023-02-28T16:41:43;17.30;41.60
67820;DHT22;54618;52.018;5.576;2023-02-28T16:44:14;17.30;41.60
67820;DHT22;54618;52.018;5.576;2023-02-28T16:46:44;17.30;41.60
67820;DHT22;54618;52.018;5.576;2023-02-28T16:49:11;17.30;41.60
67820;DHT22;54618;52.018;5.576;2023-02-28T16:51:38;17.30;41.70
67820;DHT22;54618;52.018;5.576;2023-02-28T16:54:03;17.30;41.60
67820;DHT22;54618;52.018;5.576;2023-02-28T16:56:29;17.30;41.60
67820;DHT22;54618;52.018;5.576;2023-02-28T16:58:59;17.20;41.60
67820;DHT22;54618;52.018;5.576;2023-02-28T17:01:25;17.20;41.60
67820;DHT22;54618;52.018;5.576;2023-02-28T17:03:52;17.20;41.60
67820;DHT22;54618;52.018;5.576;2023-02-28T17:06:21;17.20;41.60
67820;DHT22;54618;52.018;5.576;2023-02-28T17:08:48;17.20;41.60
67820;DHT22;54618;52.018;5.576;2023-02-28T17:11:13;17.20;41.60
67820;DHT22;54618;52.018;5.576;2023-02-28T17:13:39;17.20;41.60
67820;DHT22;54618;52.018;5.576;2023-02-28T17:16:05;17.10;41.50
67820;DHT22;54618;52.018;5.576;2023-02-28T17:18:30;17.10;41.50
67820;DHT22;54618;52.018;5.576;2023-02-28T17:21:00;17.10;41.50
67820;DHT22;54618;52.018;5.576;2023-02-28T17:23:25;17.10;41.50
67820;DHT22;54618;52.018;5.576;2023-02-28T17:25:51;17.10;41.50
67820;DHT22;54618;52.018;5.576;2023-02-28T17:28:23;17.10;41.50
67820;DHT22;54618;52.018;5.576;2023-02-28T17:30:49;17.10;41.40
67820;DHT22;54618;52.018;5.576;2023-02-28T17:33:15;17.10;41.50
67820;DHT22;54618;52.018;5.576;2023-02-28T17:35:40;17.00;41.30
67820;DHT22;54618;52.018;5.576;2023-02-28T17:38:15;17.00;41.30
67820;DHT22;54618;52.018;5.576;2023-02-28T17:40:40;17.00;41.30
67820;DHT22;54618;52.018;5.576;2023-02-28T17:43:06;17.00;41.30
67820;DHT22;54618;52.018;5.576;2023-02-28T17:45:32;17.00;41.30